KBGM/BGM METAR and TAF weather

Enter ICAO airport designator
Station Type Date Time Source
KBGM METAR 2019/04/19 22:53 UTC NOAA

KBGM 192253Z 14007KT 3SM -RA BR FEW005 BKN055 OVC070 16/16 A2962 RMK AO2 SFC VIS 5 PRESFR SLP025 P0008 T01610156


Station Type Date Time Source
KBGM Decoded METAR 2019/04/19 22:53 UTC NOAA

BINGHAMTON REGIONAL AIRPORT, NY, United States (KBGM) 42-12N 75-59W 492M
Apr 19, 2019 - 06:53 PM EDT / 2019.04.19 2253 UTC
Wind: from the SE (140 degrees) at 8 MPH (7 KT):0
Visibility: 3 mile(s):0
Sky conditions: overcast
Weather: light rain; mist
Precipitation last hour: 0.08 inches
Temperature: 61.0 F (16.1 C)
Dew Point: 60.1 F (15.6 C)
Relative Humidity: 96%
Pressure (altimeter): 29.62 in. Hg (1003 hPa)
Pressure tendency: falling rapidly
ob: KBGM 192253Z 14007KT 3SM -RA BR FEW005 BKN055 OVC070 16/16 A2962 RMK AO2 SFC VIS 5 PRESFR SLP025 P0008 T01610156
cycle: 23

Station Type Date Time Source
KBGM TAF 2019/04/19 21:45 UTC NOAA

TAF
AMD KBGM 192043Z 1921/2018 20010KT P6SM -SHRA OVC045
TEMPO 1922/1924 4SM SHRA BR OVC025
FM200000 17010KT 4SM -SHRA BR OVC015
TEMPO 2001/2005 1 1/2SM +TSRA BR OVC008CB
FM200500 18008KT 3SM -SHRA BR OVC008
FM201000 13007KT 4SM -SHRA BR OVC007
FM201600 16012G20KT P6SM BKN015 OVC040

Example: see airport list